createdAt,value
2022-11-14T00:02:43.880Z,3.50
2022-11-14T00:05:30.455Z,3.40
2022-11-14T00:08:19.121Z,3.40
2022-11-14T00:11:05.804Z,3.40
2022-11-14T00:13:53.506Z,3.30
2022-11-14T00:16:39.162Z,3.30
2022-11-14T00:19:25.825Z,3.20
2022-11-14T00:22:11.491Z,3.20
2022-11-14T00:24:57.537Z,3.20
2022-11-14T00:27:43.842Z,3.10
2022-11-14T00:30:29.524Z,3.10
2022-11-14T00:33:20.359Z,3.00
2022-11-14T00:36:06.878Z,3.00
2022-11-14T00:38:54.538Z,3.00
2022-11-14T00:41:41.218Z,3.00
2022-11-14T00:44:27.883Z,3.00
2022-11-14T00:47:14.549Z,3.00
2022-11-14T00:50:01.215Z,3.00
2022-11-14T00:52:47.904Z,3.00
2022-11-14T00:55:33.565Z,3.00
2022-11-14T00:58:20.254Z,3.00
2022-11-14T01:01:08.019Z,3.00
2022-11-14T01:03:53.596Z,2.90
2022-11-14T01:06:40.285Z,2.90
2022-11-14T01:09:26.991Z,2.90
2022-11-14T01:12:13.627Z,2.90
2022-11-14T01:15:00.333Z,2.90
2022-11-14T01:17:46.967Z,2.90
2022-11-14T01:20:32.629Z,2.80
2022-11-14T01:23:21.468Z,2.80
2022-11-14T01:26:11.522Z,2.80
2022-11-14T01:28:57.677Z,2.80
2022-11-14T01:31:45.376Z,2.80
2022-11-14T01:34:32.018Z,2.80
2022-11-14T01:37:18.715Z,2.80
2022-11-14T01:40:06.376Z,2.80
2022-11-14T01:43:11.111Z,2.80
2022-11-14T01:46:15.861Z,2.80
2022-11-14T01:49:04.539Z,2.80
2022-11-14T01:52:07.290Z,2.80
2022-11-14T01:54:54.952Z,2.70
2022-11-14T01:57:50.659Z,2.60
2022-11-14T02:00:36.334Z,2.60
2022-11-14T02:03:22.012Z,2.60
2022-11-14T02:06:10.695Z,2.60
2022-11-14T02:08:58.381Z,2.60
2022-11-14T02:11:46.053Z,2.60
2022-11-14T02:14:32.757Z,2.60
2022-11-14T02:17:30.550Z,2.50
2022-11-14T02:20:30.163Z,2.50
2022-11-14T02:23:18.842Z,2.50
2022-11-14T02:26:06.507Z,2.50
2022-11-14T02:28:53.186Z,2.50
2022-11-14T02:31:39.849Z,2.50
2022-11-14T02:34:25.519Z,2.50
2022-11-14T02:37:11.188Z,2.50
2022-11-14T02:39:57.854Z,2.50
2022-11-14T02:42:44.555Z,2.40
2022-11-14T02:45:30.720Z,2.40
2022-11-14T02:48:17.851Z,2.40
2022-11-14T02:51:03.519Z,2.40
2022-11-14T02:53:49.175Z,2.40
2022-11-14T02:56:35.144Z,2.40
2022-11-14T02:59:22.532Z,2.40
2022-11-14T03:05:10.896Z,2.40
2022-11-14T03:07:56.941Z,2.40
2022-11-14T03:10:42.318Z,2.40
2022-11-14T03:13:30.348Z,2.40
2022-11-14T03:16:15.516Z,2.40
2022-11-14T03:19:04.018Z,2.40
2022-11-14T03:21:50.578Z,2.30
2022-11-14T03:24:36.110Z,2.30
2022-11-14T03:27:21.444Z,2.30
2022-11-14T03:30:06.899Z,2.30
2022-11-14T03:32:53.098Z,2.30
2022-11-14T03:35:41.923Z,2.30
2022-11-14T03:38:28.791Z,2.40
2022-11-14T03:41:14.584Z,2.30
2022-11-14T03:43:59.707Z,2.40
2022-11-14T03:46:45.082Z,2.30
2022-11-14T03:49:30.410Z,2.30
2022-11-14T03:52:15.685Z,2.30
2022-11-14T03:55:01.395Z,2.30
2022-11-14T03:57:46.683Z,2.30
2022-11-14T04:00:32.386Z,2.30
2022-11-14T04:03:17.549Z,2.40
2022-11-14T04:06:03.342Z,2.40
2022-11-14T04:08:49.784Z,2.40
2022-11-14T04:11:35.459Z,2.40
2022-11-14T04:14:21.130Z,2.40
2022-11-14T04:17:06.571Z,2.40
2022-11-14T04:19:51.931Z,2.40
2022-11-14T04:22:37.299Z,2.40
2022-11-14T04:25:22.948Z,2.40
2022-11-14T04:28:08.458Z,2.40
2022-11-14T04:30:53.691Z,2.40
2022-11-14T04:33:39.075Z,2.40
2022-11-14T04:36:24.492Z,2.40
2022-11-14T04:39:10.153Z,2.40
2022-11-14T04:41:55.500Z,2.40
2022-11-14T04:44:40.740Z,2.40
2022-11-14T04:47:26.524Z,2.40
2022-11-14T04:50:11.596Z,2.40
2022-11-14T04:52:57.382Z,2.40
2022-11-14T04:55:43.772Z,2.40
2022-11-14T04:58:29.582Z,2.50
2022-11-14T05:01:15.210Z,2.40
2022-11-14T05:04:01.154Z,2.50
2022-11-14T05:06:46.473Z,2.40
2022-11-14T05:09:31.789Z,2.40
2022-11-14T05:12:16.994Z,2.40
2022-11-14T05:15:02.278Z,2.40
2022-11-14T05:17:48.241Z,2.40
2022-11-14T05:20:34.158Z,2.40
2022-11-14T05:23:22.847Z,2.40
2022-11-14T05:26:12.657Z,2.40
2022-11-14T05:28:58.139Z,2.40
2022-11-14T05:31:43.826Z,2.40
2022-11-14T05:34:29.126Z,2.40
2022-11-14T05:37:14.419Z,2.40
2022-11-14T05:39:59.909Z,2.40
2022-11-14T05:42:45.526Z,2.40
2022-11-14T05:45:30.860Z,2.40
2022-11-14T05:48:16.849Z,2.30
2022-11-14T05:51:03.523Z,2.40
2022-11-14T05:53:48.807Z,2.30
2022-11-14T05:56:33.975Z,2.30
2022-11-14T05:59:20.512Z,2.30
2022-11-14T06:02:06.045Z,2.30
2022-11-14T06:04:51.485Z,2.30
2022-11-14T06:07:37.544Z,2.20
2022-11-14T06:10:23.182Z,2.20
2022-11-14T06:13:08.843Z,2.20
2022-11-14T06:15:58.153Z,2.20
2022-11-14T06:18:43.723Z,2.20
2022-11-14T06:21:30.067Z,2.10
2022-11-14T06:24:17.561Z,2.10
2022-11-14T06:27:02.544Z,2.10
2022-11-14T06:29:47.857Z,2.10
2022-11-14T06:32:33.549Z,2.10
2022-11-14T06:35:19.220Z,2.10
2022-11-14T06:38:04.891Z,2.10
2022-11-14T06:40:50.558Z,2.00
2022-11-14T06:43:36.798Z,2.00
2022-11-14T06:46:23.079Z,2.10
2022-11-14T06:49:08.301Z,2.10
2022-11-14T06:51:54.235Z,2.00
2022-11-14T06:54:39.881Z,2.00
2022-11-14T06:57:25.639Z,2.00
2022-11-14T07:00:12.242Z,2.10
2022-11-14T07:02:57.951Z,2.10
2022-11-14T07:05:43.577Z,2.10
2022-11-14T07:08:30.265Z,2.10
2022-11-14T07:11:23.980Z,2.10
2022-11-14T07:14:11.626Z,2.10
2022-11-14T07:16:58.301Z,2.10
2022-11-14T07:19:43.963Z,2.20
2022-11-14T07:22:29.645Z,2.10
2022-11-14T07:25:15.035Z,2.20
2022-11-14T07:28:00.473Z,2.30
2022-11-14T07:30:46.169Z,2.30
2022-11-14T07:33:32.597Z,2.30
2022-11-14T07:36:18.949Z,2.30
2022-11-14T07:39:07.832Z,2.30
2022-11-14T07:41:53.444Z,2.30
2022-11-14T07:44:41.074Z,2.30
2022-11-14T07:48:06.162Z,2.40
2022-11-14T07:51:26.688Z,2.30
2022-11-14T07:54:47.419Z,2.40
2022-11-14T07:57:37.102Z,2.40
2022-11-14T08:00:26.401Z,2.30
2022-11-14T08:03:12.497Z,2.30
2022-11-14T08:06:04.942Z,2.40
2022-11-14T08:08:50.990Z,2.40
2022-11-14T08:11:49.570Z,2.60
2022-11-14T08:14:34.873Z,2.60
2022-11-14T08:17:21.111Z,2.60
2022-11-14T08:20:11.264Z,2.60
2022-11-14T08:23:03.862Z,2.60
2022-11-14T08:25:50.769Z,2.60
2022-11-14T08:28:55.307Z,2.70
2022-11-14T08:31:40.698Z,2.70
2022-11-14T08:34:26.055Z,2.60
2022-11-14T08:37:11.221Z,2.70
2022-11-14T08:39:56.721Z,2.70
2022-11-14T08:42:41.983Z,2.80
2022-11-14T08:45:49.506Z,2.80
2022-11-14T08:48:35.179Z,2.80
2022-11-14T08:51:21.264Z,2.90
2022-11-14T08:54:07.899Z,2.90
2022-11-14T08:56:53.567Z,3.10
2022-11-14T08:59:40.251Z,3.20
2022-11-14T09:02:42.278Z,3.10
2022-11-14T09:05:27.791Z,3.20
2022-11-14T09:08:13.067Z,3.20
2022-11-14T09:11:08.414Z,3.20
2022-11-14T09:13:55.212Z,3.30
2022-11-14T09:16:41.362Z,3.30
2022-11-14T09:19:29.063Z,3.50
2022-11-14T09:22:16.728Z,3.60
2022-11-14T09:25:02.389Z,3.70
2022-11-14T09:27:49.089Z,3.80
2022-11-14T09:30:35.788Z,4.00
2022-11-14T09:33:23.421Z,4.20
2022-11-14T09:36:12.168Z,4.30
2022-11-14T09:38:57.792Z,4.50
2022-11-14T09:41:52.493Z,4.60
2022-11-14T09:44:45.198Z,4.80
2022-11-14T09:47:39.905Z,4.90
2022-11-14T09:50:40.459Z,5.10
2022-11-14T09:53:50.391Z,5.20
2022-11-14T09:57:17.687Z,5.40
2022-11-14T10:00:03.887Z,5.60
2022-11-14T10:03:08.387Z,5.80
2022-11-14T10:06:20.513Z,6.00
2022-11-14T10:09:57.478Z,6.20
2022-11-14T10:13:03.047Z,6.40
2022-11-14T10:15:54.776Z,6.70
2022-11-14T10:18:45.466Z,7.00
2022-11-14T10:21:32.095Z,7.20
2022-11-14T10:24:19.823Z,7.50
2022-11-14T10:27:08.457Z,7.90
2022-11-14T10:30:07.163Z,8.40
2022-11-14T10:33:25.251Z,8.80
2022-11-14T10:36:30.729Z,9.40
2022-11-14T10:39:19.455Z,10.00
2022-11-14T10:42:12.103Z,10.60
2022-11-14T10:45:32.750Z,11.10
2022-11-14T10:48:39.013Z,11.60
2022-11-14T10:51:35.465Z,12.00
2022-11-14T10:54:38.198Z,12.30
2022-11-14T10:57:24.874Z,12.70
2022-11-14T11:01:04.607Z,13.20
2022-11-14T11:03:50.277Z,13.60
2022-11-14T11:06:35.474Z,14.00
2022-11-14T11:09:45.564Z,14.20
2022-11-14T11:12:37.678Z,14.50
2022-11-14T11:15:24.997Z,14.60
2022-11-14T11:18:22.372Z,14.70
2022-11-14T11:21:15.146Z,14.70
2022-11-14T11:24:00.661Z,14.70
2022-11-14T11:26:45.718Z,14.70
2022-11-14T11:29:31.174Z,14.70
2022-11-14T11:32:29.319Z,14.70
2022-11-14T11:35:16.126Z,14.70
2022-11-14T11:38:03.758Z,14.60
2022-11-14T11:40:52.429Z,14.60
2022-11-14T11:43:56.829Z,14.60
2022-11-14T11:46:43.856Z,14.50
2022-11-14T11:49:39.555Z,14.40
2022-11-14T11:52:32.258Z,14.30
2022-11-14T11:55:21.937Z,14.40
2022-11-14T11:58:23.696Z,14.40
2022-11-14T12:01:12.363Z,14.40
2022-11-14T12:03:59.066Z,14.50
2022-11-14T12:06:55.760Z,14.60
2022-11-14T12:12:49.689Z,14.50
2022-11-14T12:15:44.876Z,14.50
2022-11-14T12:18:49.627Z,14.60
2022-11-14T12:22:01.377Z,14.60
2022-11-14T12:25:09.151Z,14.60
2022-11-14T12:28:12.920Z,14.60
2022-11-14T12:31:01.569Z,14.60
2022-11-14T12:33:52.462Z,14.60
2022-11-14T12:36:38.925Z,14.60
2022-11-14T12:39:25.624Z,14.60
2022-11-14T12:42:15.029Z,14.50
2022-11-14T12:45:01.268Z,14.50
2022-11-14T12:48:06.794Z,14.50
2022-11-14T12:50:53.440Z,14.50
2022-11-14T12:53:42.971Z,14.50
2022-11-14T12:56:31.805Z,14.50
2022-11-14T12:59:30.487Z,14.40
2022-11-14T13:02:22.513Z,14.40
2022-11-14T13:05:20.922Z,14.30
2022-11-14T13:08:12.581Z,14.30
2022-11-14T13:10:58.237Z,14.30
2022-11-14T13:14:21.074Z,14.30
2022-11-14T13:17:34.875Z,14.40
2022-11-14T13:20:48.642Z,14.40
2022-11-14T13:23:43.469Z,14.40
2022-11-14T13:26:32.139Z,14.30
2022-11-14T13:29:36.224Z,14.20
2022-11-14T13:32:40.986Z,14.00
2022-11-14T13:35:32.166Z,13.80
2022-11-14T13:38:33.850Z,13.70
2022-11-14T13:41:25.776Z,13.70
2022-11-14T13:44:30.210Z,13.60
2022-11-14T13:47:15.590Z,13.50
2022-11-14T13:50:00.764Z,13.50
2022-11-14T13:52:47.326Z,13.50
2022-11-14T13:55:32.901Z,13.50
2022-11-14T13:58:33.621Z,13.50
2022-11-14T14:01:19.252Z,13.40
2022-11-14T14:04:04.351Z,13.40
2022-11-14T14:07:14.712Z,13.50
2022-11-14T14:10:03.100Z,13.50
2022-11-14T14:12:54.519Z,13.50
2022-11-14T14:15:50.483Z,13.40
2022-11-14T14:18:47.825Z,13.40
2022-11-14T14:21:33.046Z,13.40
2022-11-14T14:24:37.648Z,13.40
2022-11-14T14:27:27.009Z,13.40
2022-11-14T14:30:18.979Z,13.40
2022-11-14T14:33:07.705Z,13.30
2022-11-14T14:35:54.146Z,13.20
2022-11-14T14:38:39.702Z,13.10
2022-11-14T14:41:26.052Z,13.00
2022-11-14T14:44:21.981Z,12.80
2022-11-14T14:47:25.989Z,12.80
2022-11-14T14:50:22.439Z,12.60
2022-11-14T14:53:18.061Z,12.50
2022-11-14T14:56:17.152Z,12.40
2022-11-14T14:59:17.511Z,12.40
2022-11-14T15:02:05.192Z,12.20
2022-11-14T15:04:50.861Z,12.10
2022-11-14T15:07:39.777Z,12.00
2022-11-14T15:10:29.771Z,11.80
2022-11-14T15:13:16.130Z,11.70
2022-11-14T15:16:03.327Z,11.60
2022-11-14T15:18:49.740Z,11.40
2022-11-14T15:21:35.008Z,11.30
2022-11-14T15:24:22.068Z,11.30
2022-11-14T15:27:14.945Z,11.20
2022-11-14T15:30:02.261Z,11.10
2022-11-14T15:32:50.601Z,10.90
2022-11-14T15:35:38.321Z,10.80
2022-11-14T15:41:33.233Z,10.50
2022-11-14T15:44:36.897Z,10.40
2022-11-14T15:47:24.299Z,10.30
2022-11-14T15:50:13.244Z,10.20
2022-11-14T15:53:06.524Z,10.10
2022-11-14T15:55:53.205Z,10.10
2022-11-14T15:58:38.885Z,10.00
2022-11-14T16:01:26.575Z,9.90
2022-11-14T16:04:17.232Z,9.80
2022-11-14T16:07:04.930Z,9.70
2022-11-14T16:09:50.598Z,9.60
2022-11-14T16:12:37.247Z,9.50
2022-11-14T16:15:23.920Z,9.30
2022-11-14T16:18:12.604Z,9.30
2022-11-14T16:21:00.286Z,9.20
2022-11-14T16:23:45.971Z,9.00
2022-11-14T16:26:31.649Z,9.00
2022-11-14T16:29:19.330Z,8.90
2022-11-14T16:32:07.012Z,8.80
2022-11-14T16:34:52.696Z,8.80
2022-11-14T16:37:38.392Z,8.60
2022-11-14T16:40:28.271Z,8.60
2022-11-14T16:43:14.757Z,8.40
2022-11-14T16:46:08.471Z,8.30
2022-11-14T16:48:56.200Z,8.30
2022-11-14T16:51:49.475Z,8.30
2022-11-14T16:54:35.570Z,8.20
2022-11-14T16:57:21.228Z,8.20
2022-11-14T17:00:10.892Z,8.10
2022-11-14T17:02:59.595Z,8.00
2022-11-14T17:05:47.351Z,8.00
2022-11-14T17:08:41.155Z,7.90
2022-11-14T17:11:27.026Z,7.80
2022-11-14T17:14:13.346Z,7.70
2022-11-14T17:17:05.305Z,7.60
2022-11-14T17:19:51.690Z,7.50
2022-11-14T17:22:42.735Z,7.50
2022-11-14T17:25:31.065Z,7.40
2022-11-14T17:28:19.150Z,7.40
2022-11-14T17:31:10.437Z,7.20
2022-11-14T17:33:57.099Z,7.20
2022-11-14T17:36:43.785Z,7.10
2022-11-14T17:39:30.474Z,7.00
2022-11-14T17:42:17.149Z,7.00
2022-11-14T17:45:02.835Z,6.90
2022-11-14T17:47:48.940Z,6.80
2022-11-14T17:50:41.189Z,6.80
2022-11-14T17:53:29.072Z,6.80
2022-11-14T17:56:18.564Z,6.80
2022-11-14T17:59:04.241Z,6.70
2022-11-14T18:01:55.078Z,6.60
2022-11-14T18:04:44.775Z,6.60
2022-11-14T18:07:33.335Z,6.50
2022-11-14T18:10:19.998Z,6.50
2022-11-14T18:13:05.712Z,6.50
2022-11-14T18:15:58.370Z,6.40
2022-11-14T18:18:46.075Z,6.40
2022-11-14T18:21:32.213Z,6.40
2022-11-14T18:24:19.456Z,6.30
2022-11-14T18:27:05.088Z,6.30
2022-11-14T18:29:50.799Z,6.30
2022-11-14T18:32:37.448Z,6.20
2022-11-14T18:35:25.297Z,6.20
2022-11-14T18:38:12.794Z,6.10
2022-11-14T18:41:08.507Z,6.10
2022-11-14T18:43:59.319Z,6.00
2022-11-14T18:46:47.894Z,6.00
2022-11-14T18:49:35.650Z,5.90
2022-11-14T18:52:21.276Z,6.00
2022-11-14T18:55:10.531Z,5.90
2022-11-14T18:57:56.644Z,5.80
2022-11-14T19:00:42.748Z,5.80
2022-11-14T19:03:29.249Z,5.80
2022-11-14T19:06:15.666Z,5.70
2022-11-14T19:09:04.512Z,5.70
2022-11-14T19:12:12.657Z,5.70
2022-11-14T19:15:02.213Z,5.70
2022-11-14T19:17:48.556Z,5.70
2022-11-14T19:20:34.271Z,5.60
2022-11-14T19:23:27.452Z,5.60
2022-11-14T19:26:12.689Z,5.60
2022-11-14T19:29:02.077Z,5.50
2022-11-14T19:31:47.676Z,5.40
2022-11-14T19:34:33.126Z,5.30
2022-11-14T19:37:21.426Z,5.20
2022-11-14T19:40:07.282Z,5.20
2022-11-14T19:42:55.641Z,5.10
2022-11-14T19:45:41.298Z,5.20
2022-11-14T19:48:27.243Z,5.20
2022-11-14T19:51:15.658Z,5.20
2022-11-14T19:54:05.341Z,5.20
2022-11-14T19:56:51.093Z,5.10
2022-11-14T19:59:36.715Z,5.10
2022-11-14T20:02:24.363Z,5.10
2022-11-14T20:05:14.060Z,5.20
2022-11-14T20:08:02.061Z,5.10
2022-11-14T20:11:02.499Z,5.10
2022-11-14T20:13:49.181Z,5.10
2022-11-14T20:16:35.925Z,5.10
2022-11-14T20:19:21.519Z,5.00
2022-11-14T20:22:11.211Z,5.00
2022-11-14T20:24:58.671Z,5.00
2022-11-14T20:27:44.635Z,4.90
2022-11-14T20:30:30.236Z,4.90
2022-11-14T20:33:18.929Z,4.80
2022-11-14T20:36:06.613Z,4.80
2022-11-14T20:38:54.292Z,4.70
2022-11-14T20:41:39.994Z,4.60
2022-11-14T20:44:25.328Z,4.60
2022-11-14T20:47:11.396Z,4.60
2022-11-14T20:49:56.985Z,4.70
2022-11-14T20:52:42.497Z,4.70
2022-11-14T20:55:28.155Z,4.80
2022-11-14T20:58:15.055Z,4.80
2022-11-14T21:01:01.679Z,4.80
2022-11-14T21:03:48.372Z,4.80
2022-11-14T21:06:35.043Z,4.90
2022-11-14T21:09:20.775Z,4.90
2022-11-14T21:12:06.367Z,5.00
2022-11-14T21:14:54.447Z,5.00
2022-11-14T21:17:40.715Z,5.00
2022-11-14T21:20:27.521Z,5.10
2022-11-14T21:23:14.086Z,5.10
2022-11-14T21:26:04.809Z,5.00
2022-11-14T21:28:52.461Z,5.00
2022-11-14T21:31:40.157Z,5.10
2022-11-14T21:34:25.837Z,5.10
2022-11-14T21:37:11.657Z,5.10
2022-11-14T21:39:57.175Z,5.10
2022-11-14T21:42:42.944Z,5.10
2022-11-14T21:45:28.458Z,5.20
2022-11-14T21:48:15.215Z,5.10
2022-11-14T21:51:08.899Z,5.00
2022-11-14T21:53:56.586Z,4.90
2022-11-14T21:56:42.042Z,4.90
2022-11-14T21:59:28.995Z,5.00
2022-11-14T22:02:33.125Z,5.00
2022-11-14T22:05:19.547Z,5.00
2022-11-14T22:08:07.043Z,5.10
2022-11-14T22:10:52.516Z,5.30
2022-11-14T22:13:38.351Z,5.40
2022-11-14T22:16:24.027Z,5.30
2022-11-14T22:19:09.701Z,5.30
2022-11-14T22:21:57.455Z,5.40
2022-11-14T22:24:45.041Z,5.50
2022-11-14T22:27:32.722Z,5.50
2022-11-14T22:30:18.447Z,5.70
2022-11-14T22:33:05.044Z,5.80
2022-11-14T22:35:50.721Z,5.80
2022-11-14T22:38:37.413Z,5.90
2022-11-14T22:41:27.751Z,6.00
2022-11-14T22:44:15.882Z,6.00
2022-11-14T22:47:01.535Z,6.20
2022-11-14T22:49:46.987Z,6.20
2022-11-14T22:52:32.334Z,6.20
2022-11-14T22:55:18.348Z,6.30
2022-11-14T22:58:04.186Z,6.20
2022-11-14T23:00:50.173Z,6.20
2022-11-14T23:03:35.934Z,6.30
2022-11-14T23:06:22.153Z,6.40
2022-11-14T23:09:07.325Z,6.40
2022-11-14T23:11:52.886Z,6.50
2022-11-14T23:14:39.114Z,6.50
2022-11-14T23:17:24.769Z,6.50
2022-11-14T23:20:16.410Z,6.50
2022-11-14T23:23:03.142Z,6.50
2022-11-14T23:25:48.823Z,6.50
2022-11-14T23:28:35.528Z,6.40
2022-11-14T23:31:22.163Z,6.40
2022-11-14T23:34:07.214Z,6.30
2022-11-14T23:36:52.382Z,6.30
2022-11-14T23:39:37.863Z,6.30
2022-11-14T23:42:23.557Z,6.20
2022-11-14T23:45:11.889Z,6.20
2022-11-14T23:47:57.369Z,6.20
2022-11-14T23:50:43.563Z,6.20
2022-11-14T23:53:30.164Z,6.20
2022-11-14T23:56:16.083Z,6.30
2022-11-14T23:59:01.621Z,6.20
